Time;durP1;ratioP1;P1;durP2;ratioP2;P2;SDS_P1;SDS_P2;PMS_P1;PMS_P2;Temp;Humidity;BMP_temperature;BMP_pressure;BME280_temperature;BME280_humidity;BME280_pressure;Samples;Min_cycle;Max_cycle;Signal;HPM_P1;HPM_P2
2022/10/13 00:01:15;;;;;;;36.60;21.70;;;;;;;8.39;69.35;101445.23;104849;1292;99913;-88
2022/10/13 00:03:47;;;;;;;37.50;22.10;;;;;;;8.40;69.19;101440.45;104859;1287;108788;-88
2022/10/13 00:06:23;;;;;;;38.10;21.90;;;;;;;8.34;69.27;101439.22;104708;1280;140521;-88
2022/10/13 00:08:51;;;;;;;36.90;21.90;;;;;;;8.28;69.43;101443.13;104891;1288;93654;-88
2022/10/13 00:11:25;;;;;;;34.70;21.30;;;;;;;8.19;69.73;101444.35;104712;1288;140613;-88
2022/10/13 00:13:55;;;;;;;37.80;22.40;;;;;;;8.15;69.95;101441.70;104823;1287;99649;-88
2022/10/13 00:16:24;;;;;;;33.70;21.70;;;;;;;8.10;69.90;101438.52;104718;1296;140168;-88
2022/10/13 00:18:52;;;;;;;33.90;21.60;;;;;;;8.03;70.26;101439.74;104783;1287;93340;-88
2022/10/13 00:21:22;;;;;;;35.70;22.50;;;;;;;7.95;70.25;101438.86;104776;1296;92850;-88
2022/10/13 00:23:52;;;;;;;36.40;22.10;;;;;;;7.87;70.15;101437.25;104671;1288;139477;-88
2022/10/13 00:26:22;;;;;;;37.20;22.00;;;;;;;7.79;70.35;101433.88;104787;1287;100392;-88
2022/10/13 00:28:51;;;;;;;37.90;22.80;;;;;;;7.73;70.61;101431.21;104600;1287;141877;-88
2022/10/13 00:31:28;;;;;;;38.10;23.50;;;;;;;7.68;70.87;101436.34;104776;1294;93160;-88
2022/10/13 00:34:00;;;;;;;35.50;22.50;;;;;;;7.69;70.88;101431.38;104811;1281;93187;-88
2022/10/13 00:36:29;;;;;;;36.40;22.60;;;;;;;7.74;70.83;101431.92;104670;1284;141357;-88
2022/10/13 00:38:57;;;;;;;37.60;22.00;;;;;;;7.72;70.91;101432.27;104776;1280;101371;-88
2022/10/13 00:41:26;;;;;;;35.70;21.60;;;;;;;7.65;70.86;101429.25;104684;1295;140428;-88
2022/10/13 00:44:04;;;;;;;33.70;22.10;;;;;;;7.59;71.13;101431.89;104779;1287;93963;-88
2022/10/13 00:46:35;;;;;;;36.80;22.70;;;;;;;7.55;71.34;101431.52;104668;1287;140358;-87
2022/10/13 00:49:10;;;;;;;34.60;21.60;;;;;;;7.56;71.49;101430.80;104808;1287;108684;-87
2022/10/13 00:51:43;;;;;;;36.60;21.70;;;;;;;7.60;71.27;101428.36;104838;1294;99146;-88
2022/10/13 00:54:16;;;;;;;37.60;21.90;;;;;;;7.65;71.14;101426.06;104714;1282;140018;-88
2022/10/13 00:56:45;;;;;;;36.90;22.10;;;;;;;7.68;70.81;101427.14;104841;1288;93250;-88
2022/10/13 00:59:21;;;;;;;34.80;22.50;;;;;;;7.66;70.82;101422.54;104750;1288;139113;-88
2022/10/13 01:01:50;;;;;;;34.20;22.00;;;;;;;7.68;70.69;101417.41;104862;1280;107753;-88
2022/10/13 01:04:21;;;;;;;34.90;22.60;;;;;;;7.71;70.68;101416.19;104774;1287;141542;-88
2022/10/13 01:06:50;;;;;;;36.50;22.50;;;;;;;7.67;70.26;101417.41;104824;1295;108774;-88
2022/10/13 01:09:17;;;;;;;34.50;22.10;;;;;;;7.65;70.29;101416.52;104855;1286;93433;-88
2022/10/13 01:12:16;;;;;;;38.40;23.10;;;;;;;7.64;70.45;101414.22;104754;1280;141079;-88
2022/10/13 01:15:13;;;;;;;35.30;22.90;;;;;;;7.63;70.91;101409.80;104878;1288;108903;-88
2022/10/13 01:18:09;;;;;;;32.90;22.30;;;;;;;7.53;70.91;101407.66;104746;1287;140209;-87
2022/10/13 01:21:01;;;;;;;36.70;22.30;;;;;;;7.52;70.84;101408.54;104855;1288;108378;-88
2022/10/13 01:24:06;;;;;;;34.60;22.10;;;;;;;7.54;71.23;101408.02;104736;1298;140440;-88
2022/10/13 01:26:52;;;;;;;33.50;21.40;;;;;;;7.59;71.09;101402.37;104878;1288;92963;-88
2022/10/13 01:29:48;;;;;;;34.40;22.60;;;;;;;7.61;70.72;101401.85;104715;1293;140331;-88
2022/10/13 01:32:30;;;;;;;33.20;21.60;;;;;;;7.61;70.30;101404.85;104854;1287;99484;-88
2022/10/13 01:35:05;;;;;;;32.20;21.30;;;;;;;7.63;69.81;101399.38;104705;1281;140137;-88
2022/10/13 01:37:39;;;;;;;32.50;21.20;;;;;;;7.64;69.69;101397.62;104847;1294;92923;-89
2022/10/13 01:40:12;;;;;;;32.20;21.60;;;;;;;7.64;69.62;101398.33;104872;1297;93358;-89
2022/10/13 01:42:56;;;;;;;30.80;19.80;;;;;;;7.62;69.94;101401.66;104860;1295;108818;-88
2022/10/13 01:45:30;;;;;;;34.00;21.30;;;;;;;7.60;70.11;101399.73;104887;1298;99310;-88
2022/10/13 01:48:01;;;;;;;34.40;21.00;;;;;;;7.58;69.89;101400.77;104757;1288;139561;-88
2022/10/13 01:50:31;;;;;;;31.00;20.00;;;;;;;7.56;69.78;101397.59;104868;1291;93278;-88
2022/10/13 01:53:02;;;;;;;32.40;20.90;;;;;;;7.51;70.12;101399.52;104695;1285;139839;-89
2022/10/13 01:55:30;;;;;;;28.70;20.50;;;;;;;7.49;70.09;101399.52;104841;1301;108860;-89
2022/10/13 01:57:58;;;;;;;31.60;20.50;;;;;;;7.49;70.14;101397.73;104811;1288;99421;-89
2022/10/13 02:00:30;;;;;;;31.20;20.00;;;;;;;7.42;70.11;101395.27;104758;1295;139910;-88
2022/10/13 02:03:12;;;;;;;30.70;21.10;;;;;;;7.34;70.18;101392.24;104842;1288;93585;-88
2022/10/13 02:06:12;;;;;;;30.60;19.60;;;;;;;7.36;70.54;101388.36;104744;1288;140641;-88
2022/10/13 02:08:49;;;;;;;29.60;20.10;;;;;;;7.42;70.26;101382.17;104857;1288;108871;-88
2022/10/13 02:11:20;;;;;;;31.10;19.90;;;;;;;7.46;70.03;101382.90;104747;1294;139421;-88
2022/10/13 02:14:08;;;;;;;29.60;19.00;;;;;;;7.47;69.69;101382.02;104854;1298;108916;-88
2022/10/13 02:16:41;;;;;;;30.30;19.20;;;;;;;7.46;69.62;101378.31;104716;1300;139863;-88
2022/10/13 02:19:13;;;;;;;28.30;19.60;;;;;;;7.42;69.61;101379.89;104868;1288;93666;-88
2022/10/13 02:21:41;;;;;;;28.20;19.20;;;;;;;7.34;69.53;101378.80;104839;1280;111282;-89
2022/10/13 02:24:09;;;;;;;29.30;19.30;;;;;;;7.26;69.81;101372.25;104703;1287;139828;-89
2022/10/13 02:26:37;;;;;;;30.80;19.70;;;;;;;7.20;70.03;101369.57;104748;1293;107741;-89
2022/10/13 02:29:13;;;;;;;32.80;20.00;;;;;;;7.15;70.29;101373.27;104731;1280;141510;-88
2022/10/13 02:31:41;;;;;;;28.80;19.00;;;;;;;7.17;70.11;101369.75;104879;1297;93294;-88
2022/10/13 02:34:09;;;;;;;29.20;18.20;;;;;;;7.22;69.72;101366.77;104839;1290;108703;-89
2022/10/13 02:36:38;;;;;;;29.70;19.50;;;;;;;7.22;69.32;101367.30;104724;1287;140072;-89
2022/10/13 02:39:08;;;;;;;30.60;19.20;;;;;;;7.17;69.54;101365.86;104873;1290;108797;-89
2022/10/13 02:41:36;;;;;;;28.50;18.10;;;;;;;7.13;69.27;101368.14;104764;1294;142266;-89
2022/10/13 02:44:04;;;;;;;28.10;19.10;;;;;;;7.11;69.45;101369.73;104891;1290;92888;-89
2022/10/13 02:46:40;;;;;;;26.40;17.20;;;;;;;7.09;69.84;101367.07;104717;1295;137957;-89
2022/10/13 02:49:09;;;;;;;28.20;19.10;;;;;;;7.08;69.84;101370.59;104850;1280;96816;-89
2022/10/13 02:51:36;;;;;;;27.50;18.50;;;;;;;7.10;69.89;101368.48;104851;1287;107872;-89
2022/10/13 02:54:07;;;;;;;26.90;18.30;;;;;;;6.98;70.23;101369.33;104752;1287;138874;-89
2022/10/13 02:56:35;;;;;;;26.30;18.10;;;;;;;6.89;70.46;101370.87;104868;1295;92992;-85
2022/10/13 02:59:03;;;;;;;26.40;17.00;;;;;;;6.86;70.63;101371.57;104756;1298;139399;-87
2022/10/13 03:01:31;;;;;;;28.00;18.60;;;;;;;6.81;70.65;101371.19;104834;1290;99172;-88
2022/10/13 03:03:59;;;;;;;29.30;18.30;;;;;;;6.78;71.13;101371.89;104878;1291;108970;-87
2022/10/13 03:06:27;;;;;;;28.50;18.80;;;;;;;6.76;71.04;101366.05;104692;1288;141739;-87
2022/10/13 03:08:54;;;;;;;27.80;18.60;;;;;;;6.79;71.05;101368.18;104843;1293;93282;-87
2022/10/13 03:11:22;;;;;;;27.70;18.70;;;;;;;6.79;70.90;101365.52;104754;1288;142431;-87
2022/10/13 03:13:50;;;;;;;27.50;18.40;;;;;;;6.76;70.84;101367.82;104859;1291;99242;-87
2022/10/13 03:16:17;;;;;;;29.50;19.10;;;;;;;6.75;71.21;101365.86;104713;1280;140620;-88
2022/10/13 03:18:45;;;;;;;28.00;19.00;;;;;;;6.77;71.05;101361.81;104847;1288;93229;-87
2022/10/13 03:21:13;;;;;;;27.60;18.90;;;;;;;6.70;71.00;101360.36;104838;1288;92894;-87
2022/10/13 03:23:40;;;;;;;27.70;19.50;;;;;;;6.62;71.37;101359.63;104731;1295;140233;-87
2022/10/13 03:26:08;;;;;;;29.50;19.60;;;;;;;6.58;71.35;101358.73;104830;1280;98456;-87
2022/10/13 03:28:36;;;;;;;29.50;20.40;;;;;;;6.54;71.70;101354.29;104687;1280;138834;-87
2022/10/13 03:31:07;;;;;;;29.80;20.70;;;;;;;6.56;71.68;101351.64;104783;1287;92949;-87
2022/10/13 03:33:34;;;;;;;28.00;19.70;;;;;;;6.60;71.81;101349.55;104842;1281;93562;-87
2022/10/13 03:36:04;;;;;;;29.30;19.70;;;;;;;6.64;71.33;101352.58;104719;1290;138942;-87
2022/10/13 03:38:33;;;;;;;30.40;19.70;;;;;;;6.60;71.44;101349.73;104831;1288;98542;-87
2022/10/13 03:41:06;;;;;;;31.70;21.10;;;;;;;6.51;72.01;101351.79;104754;1295;140778;-87
2022/10/13 03:43:34;;;;;;;31.90;21.00;;;;;;;6.52;71.97;101348.63;104858;1287;93273;-87
2022/10/13 03:46:03;;;;;;;31.40;21.40;;;;;;;6.58;71.97;101351.48;104823;1294;92924;-87
2022/10/13 03:48:32;;;;;;;29.70;20.40;;;;;;;6.60;72.17;101352.73;104761;1297;139511;-87
2022/10/13 03:51:09;;;;;;;31.90;20.90;;;;;;;6.59;72.59;101353.79;104789;1280;100235;-87
2022/10/13 03:53:39;;;;;;;30.00;20.30;;;;;;;6.62;72.47;101347.98;104748;1297;140929;-88
2022/10/13 03:56:06;;;;;;;32.50;21.50;;;;;;;6.68;72.47;101351.71;104868;1298;93223;-87
2022/10/13 03:58:37;;;;;;;31.20;21.90;;;;;;;6.72;72.33;101351.92;104769;1294;140381;-87
2022/10/13 04:01:05;;;;;;;32.00;20.50;;;;;;;6.75;72.47;101354.21;104870;1295;109388;-87
2022/10/13 04:03:33;;;;;;;31.40;21.30;;;;;;;6.78;72.56;101352.81;104856;1298;98947;-87
2022/10/13 04:06:03;;;;;;;31.70;21.40;;;;;;;6.78;72.78;101357.94;104718;1284;138878;-87
2022/10/13 04:08:31;;;;;;;29.70;20.30;;;;;;;6.78;72.86;101355.64;104840;1287;94583;-87
2022/10/13 04:11:01;;;;;;;28.90;20.20;;;;;;;6.79;72.93;101357.23;104716;1288;142071;-87
2022/10/13 04:13:29;;;;;;;30.40;19.90;;;;;;;6.78;73.01;101360.94;104880;1295;108909;-87
2022/10/13 04:16:02;;;;;;;27.70;19.80;;;;;;;6.79;73.07;101363.93;104848;1287;99353;-86
2022/10/13 04:18:29;;;;;;;27.60;18.90;;;;;;;6.78;73.39;101363.23;104740;1288;139599;-87
2022/10/13 04:20:57;;;;;;;29.60;19.40;;;;;;;6.77;73.48;101360.23;104774;1281;93181;-87
2022/10/13 04:23:25;;;;;;;28.40;19.30;;;;;;;6.76;73.32;101364.81;104805;1280;140288;-87
2022/10/13 04:25:53;;;;;;;26.40;18.40;;;;;;;6.75;73.54;101363.92;104852;1288;109926;-86
2022/10/13 04:28:20;;;;;;;30.60;20.20;;;;;;;6.73;73.86;101367.98;104783;1288;140336;-86
2022/10/13 04:30:48;;;;;;;31.20;19.60;;;;;;;6.68;74.18;101369.70;104863;1297;107898;-86
2022/10/13 04:33:16;;;;;;;29.20;19.80;;;;;;;6.62;74.61;101368.98;104822;1298;93233;-85
2022/10/13 04:35:44;;;;;;;30.10;19.00;;;;;;;6.60;74.71;101368.97;104754;1291;140781;-85
2022/10/13 04:38:11;;;;;;;28.00;19.70;;;;;;;6.64;74.52;101369.16;104874;1288;109415;-85
2022/10/13 04:40:39;;;;;;;30.90;19.70;;;;;;;6.64;74.57;101370.40;104753;1288;141937;-85
2022/10/13 04:43:07;;;;;;;30.60;20.60;;;;;;;6.61;74.62;101367.20;104875;1302;107465;-85
2022/10/13 04:45:35;;;;;;;31.40;20.50;;;;;;;6.55;74.85;101368.93;104870;1290;94003;-85
2022/10/13 04:48:02;;;;;;;30.50;20.50;;;;;;;6.52;75.18;101368.39;104762;1288;139835;-85
2022/10/13 04:50:30;;;;;;;30.10;21.00;;;;;;;6.48;75.38;101368.36;104873;1284;110208;-85
2022/10/13 04:53:00;;;;;;;30.80;20.80;;;;;;;6.50;75.56;101371.20;104782;1288;139792;-85
2022/10/13 04:55:27;;;;;;;31.60;21.10;;;;;;;6.47;75.37;101368.52;104859;1287;107978;-85
2022/10/13 04:57:55;;;;;;;33.30;21.40;;;;;;;6.44;75.52;101369.76;104892;1287;92885;-85
2022/10/13 05:00:22;;;;;;;29.80;20.60;;;;;;;6.46;75.67;101371.00;104737;1288;138939;-86
2022/10/13 05:02:50;;;;;;;29.60;20.40;;;;;;;6.46;75.49;101372.23;104908;1289;108192;-86
2022/10/13 05:05:18;;;;;;;30.20;20.30;;;;;;;6.50;75.40;101370.85;104813;1284;140675;-86
2022/10/13 05:07:46;;;;;;;30.90;20.10;;;;;;;6.56;75.23;101370.52;104811;1288;108778;-86
2022/10/13 05:10:13;;;;;;;30.70;20.10;;;;;;;6.67;75.06;101370.23;104739;1281;141560;-84
2022/10/13 05:12:41;;;;;;;31.60;19.40;;;;;;;6.75;74.47;101370.81;104862;1288;92794;-85
2022/10/13 05:15:09;;;;;;;31.60;20.40;;;;;;;6.77;74.32;101372.75;104903;1288;108268;-86
2022/10/13 05:17:37;;;;;;;29.30;19.20;;;;;;;6.77;73.82;101371.87;104784;1288;139760;-86
2022/10/13 05:20:08;;;;;;;31.70;20.30;;;;;;;6.74;74.07;101371.16;104869;1295;108758;-86
2022/10/13 05:22:36;;;;;;;31.00;21.10;;;;;;;6.70;74.19;101369.89;104731;1302;140877;-86
2022/10/13 05:25:04;;;;;;;29.60;19.10;;;;;;;6.73;74.30;101369.56;104871;1288;93218;-86
2022/10/13 05:27:32;;;;;;;30.70;20.40;;;;;;;6.75;73.99;101370.64;104859;1281;108678;-86
2022/10/13 05:30:00;;;;;;;30.50;18.90;;;;;;;6.75;73.94;101368.69;104732;1292;140283;-86
2022/10/13 05:32:28;;;;;;;28.30;19.80;;;;;;;6.78;74.12;101365.88;104868;1296;107743;-86
2022/10/13 05:34:56;;;;;;;34.50;20.60;;;;;;;6.79;73.78;101364.30;104766;1288;141397;-86
2022/10/13 05:37:24;;;;;;;28.20;19.10;;;;;;;6.85;73.47;101365.03;104862;1295;93233;-86
2022/10/13 05:39:52;;;;;;;29.40;19.20;;;;;;;6.89;73.49;101367.70;104921;1287;110469;-85
2022/10/13 05:42:20;;;;;;;28.10;17.80;;;;;;;6.93;73.28;101370.00;104840;1288;139576;-86
2022/10/13 05:44:48;;;;;;;28.50;19.10;;;;;;;6.97;73.27;101371.79;104896;1281;108749;-86
2022/10/13 05:47:16;;;;;;;30.30;19.70;;;;;;;7.01;73.27;101375.17;104786;1296;139189;-86
2022/10/13 05:49:44;;;;;;;28.70;19.10;;;;;;;7.05;73.30;101378.36;104892;1287;93191;-85
2022/10/13 05:52:12;;;;;;;30.50;19.30;;;;;;;7.04;73.74;101376.41;104750;1287;139013;-82
2022/10/13 05:54:45;;;;;;;29.70;18.90;;;;;;;6.98;74.24;101373.91;104876;1288;98861;-84
2022/10/13 05:57:17;;;;;;;32.80;19.90;;;;;;;6.93;74.30;101376.89;104835;1287;107609;-79
2022/10/13 05:59:51;;;;;;;30.80;19.20;;;;;;;6.89;74.53;101375.64;104743;1298;140431;-79
2022/10/13 06:02:25;;;;;;;29.80;18.90;;;;;;;6.83;74.78;101377.73;104877;1284;93542;-79
2022/10/13 06:04:56;;;;;;;30.00;19.70;;;;;;;6.80;75.12;101381.42;104798;1295;140529;-79
2022/10/13 06:07:24;;;;;;;33.30;19.90;;;;;;;6.80;75.38;101387.61;104871;1288;97497;-79
2022/10/13 06:09:51;;;;;;;33.20;20.80;;;;;;;6.86;75.33;101388.86;104864;1305;108606;-79
2022/10/13 06:12:19;;;;;;;31.70;20.70;;;;;;;6.89;75.44;101392.23;104749;1296;141090;-80
2022/10/13 06:14:47;;;;;;;30.30;19.10;;;;;;;6.93;75.30;101391.73;104846;1297;92945;-79
2022/10/13 06:17:15;;;;;;;31.50;19.40;;;;;;;6.95;75.74;101392.61;104728;1297;138847;-80
2022/10/13 06:19:44;;;;;;;30.90;19.40;;;;;;;6.96;75.57;101388.91;104904;1284;98500;-83
2022/10/13 06:22:12;;;;;;;31.30;19.60;;;;;;;7.00;75.46;101390.16;104831;1298;107712;-80
2022/10/13 06:24:40;;;;;;;29.90;19.30;;;;;;;7.08;75.73;101390.56;104862;1301;94490;-81
2022/10/13 06:27:09;;;;;;;35.90;19.90;;;;;;;7.15;75.44;101394.99;104873;1290;93587;-81
2022/10/13 06:29:37;;;;;;;28.70;17.90;;;;;;;7.24;75.31;101393.79;104761;1298;138940;-80
2022/10/13 06:32:05;;;;;;;33.70;18.70;;;;;;;7.31;74.96;101390.45;104872;1295;98222;-81
2022/10/13 06:34:33;;;;;;;28.90;17.60;;;;;;;7.37;74.95;101389.95;104715;1298;140587;-80
2022/10/13 06:37:01;;;;;;;30.70;18.30;;;;;;;7.44;74.55;101387.84;104892;1294;93302;-80
2022/10/13 06:39:29;;;;;;;31.50;19.00;;;;;;;7.54;74.61;101390.70;104901;1298;93224;-80
2022/10/13 06:41:58;;;;;;;31.20;18.90;;;;;;;7.69;74.62;101385.95;104793;1281;139179;-80
2022/10/13 06:44:32;;;;;;;30.80;19.10;;;;;;;7.80;74.11;101387.91;104896;1288;97048;-80
2022/10/13 06:47:02;;;;;;;30.00;17.30;;;;;;;7.87;73.63;101382.09;104777;1288;140126;-83
2022/10/13 06:49:30;;;;;;;30.30;17.80;;;;;;;7.95;73.51;101387.03;104876;1286;92891;-83
2022/10/13 06:51:58;;;;;;;27.10;17.10;;;;;;;8.03;73.27;101381.55;104862;1303;93243;-82
2022/10/13 06:54:26;;;;;;;29.20;16.60;;;;;;;8.12;72.94;101382.09;104797;1296;139060;-82
2022/10/13 06:56:53;;;;;;;24.40;15.30;;;;;;;8.20;72.66;101381.20;104891;1301;96352;-82
2022/10/13 06:59:21;;;;;;;28.70;15.80;;;;;;;8.24;72.05;101379.41;104749;1293;140011;-81
2022/10/13 07:01:50;;;;;;;26.10;15.70;;;;;;;8.30;71.80;101379.79;104873;1295;93246;-81
2022/10/13 07:04:21;;;;;;;29.20;16.60;;;;;;;8.36;71.77;101378.35;104770;1305;140553;-83
2022/10/13 07:06:50;;;;;;;27.30;15.90;;;;;;;8.44;71.36;101380.11;104882;1301;109419;-81
2022/10/13 07:09:19;;;;;;;27.20;14.70;;;;;;;8.52;71.51;101380.13;104869;1296;98553;-80
2022/10/13 07:11:47;;;;;;;24.20;13.90;;;;;;;8.65;71.32;101377.98;104738;1293;140587;-81
2022/10/13 07:14:15;;;;;;;26.70;14.90;;;;;;;8.76;70.58;101372.27;104847;1298;93508;-83
2022/10/13 07:16:42;;;;;;;25.30;13.90;;;;;;;8.87;70.34;101368.34;104778;1295;141555;-82
2022/10/13 07:19:10;;;;;;;29.80;15.40;;;;;;;8.95;70.23;101366.37;104892;1298;107364;-82
2022/10/13 07:21:38;;;;;;;25.70;14.50;;;;;;;9.04;70.11;101364.03;104896;1295;98406;-85
2022/10/13 07:24:06;;;;;;;24.70;14.30;;;;;;;9.15;69.72;101362.02;104646;1305;138476;-84
2022/10/13 07:26:35;;;;;;;27.70;14.80;;;;;;;9.24;69.36;101356.30;104849;1301;93834;-83
2022/10/13 07:29:03;;;;;;;23.90;13.90;;;;;;;9.38;69.61;101354.63;104773;1301;140444;-85
2022/10/13 07:31:30;;;;;;;24.70;13.90;;;;;;;9.50;68.81;101355.45;104867;1296;109239;-85
2022/10/13 07:33:59;;;;;;;26.90;13.90;;;;;;;9.57;68.14;101356.81;104871;1297;97178;-83
2022/10/13 07:36:27;;;;;;;28.80;14.90;;;;;;;9.62;68.07;101351.83;104764;1294;139979;-84
2022/10/13 07:38:55;;;;;;;26.30;14.50;;;;;;;9.70;68.61;101351.95;104862;1298;92907;-84
2022/10/13 07:41:23;;;;;;;24.10;13.90;;;;;;;9.79;68.53;101345.48;104786;1287;139600;-84
2022/10/13 07:43:55;;;;;;;26.80;14.60;;;;;;;9.91;67.67;101345.23;104892;1295;109735;-83
2022/10/13 07:46:23;;;;;;;22.40;13.10;;;;;;;9.97;67.92;101337.71;104777;1287;140649;-83
2022/10/13 07:48:52;;;;;;;23.30;12.80;;;;;;;10.06;67.67;101331.60;104873;1295;108779;-85
2022/10/13 07:51:21;;;;;;;23.40;11.90;;;;;;;10.17;66.57;101328.65;104948;1288;92971;-85
2022/10/13 07:53:49;;;;;;;21.70;11.50;;;;;;;10.27;65.91;101324.31;104838;1296;140665;-85
2022/10/13 07:56:16;;;;;;;20.80;11.40;;;;;;;10.38;66.02;101324.04;104868;1296;108801;-85
2022/10/13 07:58:46;;;;;;;19.50;10.30;;;;;;;10.48;65.77;101325.35;104756;1293;139300;-84
2022/10/13 08:01:14;;;;;;;22.30;10.40;;;;;;;10.62;65.44;101325.20;104847;1297;106616;-82
2022/10/13 08:03:43;;;;;;;23.30;10.90;;;;;;;10.75;65.26;101328.06;104897;1300;92939;-83
2022/10/13 08:06:18;;;;;;;17.10;9.10;;;;;;;10.85;64.99;101329.00;104780;1292;138761;-84
2022/10/13 08:08:46;;;;;;;18.10;8.70;;;;;;;10.94;64.14;101328.02;104886;1301;109722;-83
2022/10/13 08:11:16;;;;;;;18.90;8.70;;;;;;;11.02;63.16;101323.28;104771;1295;139159;-84
2022/10/13 08:13:48;;;;;;;18.20;8.60;;;;;;;11.11;62.14;101322.46;104884;1295;108781;-85
2022/10/13 08:16:21;;;;;;;18.00;8.40;;;;;;;11.17;62.27;101318.45;104643;1299;141208;-83
2022/10/13 08:18:48;;;;;;;16.90;8.30;;;;;;;11.25;62.51;101316.21;104885;1303;92818;-84
2022/10/13 08:21:17;;;;;;;17.50;8.30;;;;;;;11.36;62.17;101313.39;104868;1295;109843;-85
2022/10/13 08:24:11;;;;;;;17.70;8.40;;;;;;;11.47;61.28;101307.90;104756;1301;140191;-84
2022/10/13 08:26:39;;;;;;;16.60;8.20;;;;;;;11.56;61.43;101306.85;104874;1295;109375;-85
2022/10/13 08:29:07;;;;;;;16.90;8.00;;;;;;;11.69;61.84;101306.48;104755;1302;141003;-88
2022/10/13 08:31:48;;;;;;;16.50;8.40;;;;;;;11.80;61.18;101307.37;104889;1293;93317;-82
2022/10/13 08:34:22;;;;;;;18.30;7.90;;;;;;;11.94;61.36;101305.73;104770;1286;139916;-83
2022/10/13 08:36:53;;;;;;;14.60;7.40;;;;;;;12.06;60.78;101302.34;104904;1302;97441;-86
2022/10/13 08:39:23;;;;;;;14.80;7.40;;;;;;;12.19;60.61;101304.57;104853;1294;107838;-84
2022/10/13 08:41:53;;;;;;;18.10;7.20;;;;;;;12.34;59.87;101296.29;104734;1280;139690;-85
2022/10/13 08:44:48;;;;;;;14.60;7.30;;;;;;;12.48;59.28;101297.80;104856;1296;93192;-84
2022/10/13 08:47:44;;;;;;;14.90;7.80;;;;;;;12.74;58.90;101294.25;104748;1295;138601;-85
2022/10/13 08:50:19;;;;;;;14.90;7.00;;;;;;;13.80;56.16;101287.88;104884;1293;97700;-83
2022/10/13 08:53:03;;;;;;;15.30;7.30;;;;;;;14.87;52.46;101286.45;104745;1288;138428;-85
2022/10/13 08:55:48;;;;;;;19.90;8.30;;;;;;;14.77;52.09;101289.41;104900;1293;93267;-82
2022/10/13 08:58:23;;;;;;;13.30;7.00;;;;;;;14.53;52.23;101289.71;104787;1293;138427;-83
2022/10/13 09:01:07;;;;;;;14.90;7.60;;;;;;;14.36;52.90;101286.42;104882;1291;108493;-82
2022/10/13 09:03:49;;;;;;;14.30;7.40;;;;;;;14.29;52.70;101285.20;104908;1295;98228;-82
2022/10/13 09:06:20;;;;;;;11.00;6.30;;;;;;;14.21;53.32;101285.95;104774;1295;138641;-82
2022/10/13 09:08:53;;;;;;;15.80;6.90;;;;;;;14.15;52.97;101285.05;104863;1295;93017;-81
2022/10/13 09:11:21;;;;;;;14.80;6.70;;;;;;;14.16;53.64;101285.36;104755;1288;139419;-82
2022/10/13 09:13:53;;;;;;;13.40;6.80;;;;;;;14.13;52.07;101287.23;104903;1296;109307;-85
2022/10/13 09:16:34;;;;;;;14.20;6.90;;;;;;;14.13;52.97;101282.21;104793;1298;138294;-84
2022/10/13 09:19:19;;;;;;;12.80;6.20;;;;;;;14.18;52.22;101279.05;104894;1293;106673;-84
2022/10/13 09:21:49;;;;;;;12.80;5.90;;;;;;;14.40;50.84;101277.04;104838;1301;93260;-82
2022/10/13 09:24:19;;;;;;;15.70;6.30;;;;;;;15.18;48.98;101274.73;104775;1287;140586;-82
2022/10/13 09:26:48;;;;;;;12.60;5.40;;;;;;;16.17;47.56;101273.99;104905;1304;108205;-81
2022/10/13 09:29:23;;;;;;;11.90;5.50;;;;;;;17.41;44.93;101267.48;104792;1301;139204;-83
2022/10/13 09:32:06;;;;;;;10.10;5.10;;;;;;;18.37;43.21;101266.50;104882;1306;108735;-81
2022/10/13 09:34:33;;;;;;;12.50;5.20;;;;;;;19.36;39.18;101259.00;104782;1295;140638;-84
2022/10/13 09:37:17;;;;;;;11.70;5.80;;;;;;;19.95;38.00;101263.63;104901;1306;93212;-83
2022/10/13 09:39:46;;;;;;;13.00;5.30;;;;;;;20.62;37.72;101263.90;104913;1296;109267;-83
2022/10/13 09:42:29;;;;;;;10.70;4.90;;;;;;;20.89;37.16;101258.66;104762;1293;139761;-83
2022/10/13 09:45:17;;;;;;;12.10;5.30;;;;;;;21.80;36.10;101252.52;104896;1292;107442;-86
2022/10/13 09:47:53;;;;;;;10.20;4.80;;;;;;;22.67;34.04;101246.70;104766;1301;138362;-84
2022/10/13 09:50:25;;;;;;;11.10;4.90;;;;;;;23.80;32.80;101244.69;104908;1301;93004;-84
2022/10/13 09:53:25;;;;;;;10.90;4.70;;;;;;;25.22;31.43;101243.02;104765;1289;139245;-82
2022/10/13 09:56:08;;;;;;;8.80;4.40;;;;;;;26.39;28.28;101238.09;104907;1298;98071;-83
2022/10/13 09:58:47;;;;;;;10.40;4.40;;;;;;;27.17;27.98;101237.97;104731;1286;140221;-83
2022/10/13 10:01:24;;;;;;;10.50;3.90;;;;;;;27.59;26.67;101234.48;104770;1298;93208;-82
2022/10/13 10:03:54;;;;;;;11.10;4.10;;;;;;;26.99;26.85;101238.00;104899;1296;93067;-83
2022/10/13 10:06:22;;;;;;;9.80;3.90;;;;;;;26.93;26.16;101229.60;104797;1294;138080;-83
2022/10/13 10:09:21;;;;;;;9.80;4.10;;;;;;;27.13;26.00;101227.20;104890;1281;99306;-83
2022/10/13 10:11:52;;;;;;;7.90;3.50;;;;;;;27.82;25.35;101221.21;104774;1301;138908;-83
2022/10/13 10:14:27;;;;;;;9.30;3.50;;;;;;;28.50;24.85;101224.23;104904;1293;93241;-83
2022/10/13 10:17:11;;;;;;;8.60;3.40;;;;;;;28.76;23.77;101221.22;104785;1301;139690;-83
2022/10/13 10:19:42;;;;;;;8.30;3.30;;;;;;;29.20;23.50;101213.80;104891;1288;109767;-84
2022/10/13 10:22:28;;;;;;;7.70;3.40;;;;;;;27.71;24.52;101206.22;104906;1301;99010;-85
2022/10/13 10:25:07;;;;;;;7.30;3.00;;;;;;;25.44;27.08;101203.55;104900;1288;108732;-84
2022/10/13 10:27:40;;;;;;;9.10;3.40;;;;;;;23.80;28.84;101198.48;104861;1295;93261;-82
2022/10/13 10:30:16;;;;;;;7.60;2.90;;;;;;;22.49;30.47;101194.58;104775;1287;139799;-82
2022/10/13 10:32:56;;;;;;;8.50;3.20;;;;;;;21.44;32.53;101188.88;104866;1300;109886;-80
2022/10/13 10:35:33;;;;;;;7.90;2.90;;;;;;;20.59;33.13;101190.80;104780;1296;138337;-81
2022/10/13 10:38:04;;;;;;;7.90;2.60;;;;;;;19.59;33.84;101186.94;104858;1292;106801;-86
2022/10/13 10:40:56;;;;;;;7.00;2.30;;;;;;;18.71;35.82;101185.63;104795;1288;139308;-83
2022/10/13 10:43:30;;;;;;;7.70;2.60;;;;;;;18.04;36.84;101189.61;104873;1298;92978;-82
2022/10/13 10:45:59;;;;;;;7.50;2.50;;;;;;;17.56;37.67;101192.73;104890;1301;106702;-83
2022/10/13 10:48:34;;;;;;;7.50;2.70;;;;;;;17.16;38.59;101189.73;104790;1281;139718;-83
2022/10/13 10:51:06;;;;;;;6.90;2.40;;;;;;;16.93;39.87;101186.74;104945;1295;107795;-82
2022/10/13 10:54:02;;;;;;;7.00;2.30;;;;;;;16.60;39.54;101191.58;104784;1298;138144;-80
2022/10/13 10:56:41;;;;;;;7.80;2.50;;;;;;;16.22;40.25;101186.75;104912;1298;93252;-82
2022/10/13 10:59:50;;;;;;;7.90;2.70;;;;;;;16.02;40.96;101188.90;104792;1301;138375;-86
2022/10/13 11:02:47;;;;;;;7.50;3.20;;;;;;;15.88;41.57;101179.73;104919;1296;99168;-82
2022/10/13 11:05:15;;;;;;;7.70;2.90;;;;;;;15.80;42.15;101174.98;104756;1296;139608;-84
2022/10/13 11:07:44;;;;;;;7.00;2.30;;;;;;;15.72;42.45;101170.61;104886;1301;93229;-83
2022/10/13 11:10:11;;;;;;;9.80;3.10;;;;;;;15.62;42.28;101167.17;104903;1301;93262;-87
2022/10/13 11:12:49;;;;;;;8.50;2.80;;;;;;;15.59;42.98;101160.48;104901;1295;109036;-85
2022/10/13 11:15:26;;;;;;;7.70;2.70;;;;;;;15.60;43.32;101156.70;104918;1301;99423;-84
2022/10/13 11:17:53;;;;;;;8.10;2.60;;;;;;;15.55;43.04;101155.80;104779;1295;139920;-87
2022/10/13 11:20:23;;;;;;;9.00;2.80;;;;;;;15.46;43.15;101151.26;104888;1301;93228;-83
2022/10/13 11:22:57;;;;;;;7.90;2.80;;;;;;;15.46;43.82;101148.58;104812;1295;140304;-87
2022/10/13 11:25:34;;;;;;;9.30;3.00;;;;;;;15.47;43.74;101144.80;104931;1297;108500;-84
2022/10/13 11:28:20;;;;;;;9.30;3.20;;;;;;;15.44;44.19;101138.64;104914;1301;100135;-84